createdAt,value
2018-06-19T00:01:26.922Z,16.80
2018-06-19T00:06:21.562Z,16.70
2018-06-19T00:11:16.068Z,16.80
2018-06-19T00:16:10.736Z,16.70
2018-06-19T00:21:10.370Z,16.60
2018-06-19T00:26:05.181Z,16.50
2018-06-19T00:30:59.707Z,16.40
2018-06-19T00:35:54.192Z,16.30
2018-06-19T00:40:48.823Z,16.20
2018-06-19T00:45:43.803Z,16.20
2018-06-19T00:50:38.269Z,16.10
2018-06-19T00:55:32.912Z,16.10
2018-06-19T01:00:27.450Z,16.20
2018-06-19T01:05:22.093Z,16.10
2018-06-19T01:15:10.834Z,16.00
2018-06-19T01:20:07.348Z,15.90
2018-06-19T01:34:50.329Z,15.80
2018-06-19T01:39:44.798Z,15.70
2018-06-19T01:44:39.284Z,15.70
2018-06-19T01:49:33.909Z,15.70
2018-06-19T01:54:28.758Z,15.70
2018-06-19T01:59:23.435Z,15.60
2018-06-19T02:04:18.055Z,15.60
2018-06-19T02:09:12.849Z,15.50
2018-06-19T02:14:07.301Z,15.50
2018-06-19T02:19:01.884Z,15.60
2018-06-19T02:23:56.620Z,15.60
2018-06-19T02:28:51.113Z,15.50
2018-06-19T02:33:45.776Z,15.50
2018-06-19T02:38:40.313Z,15.50
2018-06-19T02:43:34.778Z,15.40
2018-06-19T02:48:29.276Z,15.40
2018-06-19T02:53:23.732Z,15.30
2018-06-19T02:58:18.204Z,15.30
2018-06-19T03:03:12.675Z,15.30
2018-06-19T03:13:01.500Z,15.30
2018-06-19T03:17:56.037Z,15.20
2018-06-19T03:22:50.652Z,15.20
2018-06-19T03:27:45.458Z,15.20
2018-06-19T03:32:40.220Z,15.20
2018-06-19T03:42:30.022Z,15.30
2018-06-19T03:47:24.562Z,15.30
2018-06-19T03:57:13.454Z,15.40
2018-06-19T04:02:07.922Z,15.50
2018-06-19T04:07:02.831Z,15.60
2018-06-19T04:11:57.657Z,15.80
2018-06-19T04:16:52.367Z,16.00
2018-06-19T04:21:47.332Z,16.10
2018-06-19T04:31:36.194Z,16.50
2018-06-19T04:36:31.455Z,16.80
2018-06-19T04:41:26.528Z,17.20
2018-06-19T04:46:21.136Z,17.50
2018-06-19T04:51:15.638Z,17.70
2018-06-19T04:56:10.112Z,17.80
2018-06-19T05:01:04.845Z,17.80
2018-06-19T05:05:59.567Z,17.90
2018-06-19T05:10:54.287Z,18.00
2018-06-19T05:15:49.042Z,18.00
2018-06-19T05:25:38.293Z,18.20
2018-06-19T05:30:32.822Z,18.30
2018-06-19T05:35:27.725Z,18.40
2018-06-19T05:40:22.293Z,18.50
2018-06-19T05:45:16.843Z,18.50
2018-06-19T05:50:11.370Z,18.60
2018-06-19T05:55:06.008Z,18.80
2018-06-19T06:04:55.129Z,19.10
2018-06-19T06:14:44.592Z,19.20
2018-06-19T06:19:39.576Z,19.40
2018-06-19T06:24:34.745Z,19.40
2018-06-19T06:29:29.600Z,19.60
2018-06-19T06:34:24.903Z,19.80
2018-06-19T06:39:19.486Z,20.00
2018-06-19T06:44:14.089Z,20.20
2018-06-19T06:49:09.206Z,20.30
2018-06-19T06:54:03.942Z,20.50
2018-06-19T06:58:58.778Z,20.70
2018-06-19T07:08:47.908Z,21.20
2018-06-19T07:18:37.628Z,22.00
2018-06-19T07:33:21.040Z,22.50
2018-06-19T07:43:10.138Z,22.50
2018-06-19T07:48:04.888Z,22.60
2018-06-19T07:52:59.650Z,22.60
2018-06-19T07:57:54.072Z,22.60
2018-06-19T08:02:49.666Z,22.40
2018-06-19T08:07:44.343Z,22.30
2018-06-19T08:12:39.268Z,22.10
2018-06-19T08:17:33.816Z,22.20
2018-06-19T08:22:28.547Z,22.30
2018-06-19T08:27:23.565Z,22.20
2018-06-19T08:32:18.445Z,22.10
2018-06-19T08:37:13.768Z,21.90
2018-06-19T08:42:08.320Z,21.80
2018-06-19T08:51:58.047Z,21.80
2018-06-19T09:01:47.725Z,21.80
2018-06-19T09:06:43.192Z,21.80
2018-06-19T09:11:37.976Z,21.80
2018-06-19T09:16:32.450Z,21.90
2018-06-19T09:21:27.281Z,22.00
2018-06-19T09:26:21.809Z,22.10
2018-06-19T09:31:16.793Z,22.30
2018-06-19T09:36:11.532Z,22.30
2018-06-19T09:41:06.370Z,22.50
2018-06-19T09:46:01.449Z,22.80
2018-06-19T09:50:55.922Z,23.20
2018-06-19T09:55:50.753Z,23.50
2018-06-19T10:00:45.647Z,23.80
2018-06-19T10:05:40.421Z,23.90
2018-06-19T10:10:35.116Z,24.50
2018-06-19T10:15:29.644Z,25.00
2018-06-19T10:20:24.262Z,25.20
2018-06-19T10:25:19.131Z,25.20
2018-06-19T10:30:13.842Z,25.30
2018-06-19T10:35:08.813Z,25.20
2018-06-19T10:49:52.240Z,25.10
2018-06-19T10:54:46.710Z,25.00
2018-06-19T10:59:41.167Z,25.10
2018-06-19T11:04:35.730Z,25.20
2018-06-19T11:09:31.042Z,25.40
2018-06-19T11:14:25.670Z,25.90
2018-06-19T11:19:20.406Z,26.40
2018-06-19T11:24:15.314Z,26.70
2018-06-19T11:34:04.445Z,26.10
2018-06-19T11:38:59.102Z,25.60
2018-06-19T11:43:53.702Z,25.10
2018-06-19T11:48:48.331Z,24.80
2018-06-19T11:53:43.156Z,24.70
2018-06-19T12:03:31.952Z,25.30
2018-06-19T12:08:26.849Z,25.70
2018-06-19T12:13:21.984Z,26.20
2018-06-19T12:18:17.004Z,26.40
2018-06-19T12:23:11.556Z,26.70
2018-06-19T12:28:06.082Z,27.00
2018-06-19T12:33:00.854Z,27.30
2018-06-19T12:42:50.308Z,26.90
2018-06-19T12:47:45.145Z,26.60
2018-06-19T12:52:56.650Z,26.40
2018-06-19T12:57:51.971Z,26.20
2018-06-19T13:03:04.074Z,26.00
2018-06-19T13:07:58.927Z,25.90
2018-06-19T13:18:44.223Z,25.90
2018-06-19T13:23:39.181Z,26.10
2018-06-19T13:44:46.451Z,26.20
2018-06-19T13:49:42.109Z,26.00
2018-06-19T13:54:36.862Z,25.90
2018-06-19T13:59:31.450Z,25.80
2018-06-19T14:04:26.302Z,25.90
2018-06-19T14:10:35.499Z,25.70
2018-06-19T14:15:34.292Z,25.50
2018-06-19T14:20:28.903Z,25.20
2018-06-19T14:25:23.958Z,25.10
2018-06-19T14:30:18.583Z,25.30
2018-06-19T14:35:13.585Z,25.50
2018-06-19T14:40:08.031Z,25.90
2018-06-19T14:45:02.868Z,26.20
2018-06-19T14:54:52.065Z,26.70
2018-06-19T14:59:46.676Z,26.80
2018-06-19T15:04:41.248Z,26.50
2018-06-19T15:14:30.020Z,25.90
2018-06-19T15:19:25.004Z,25.60
2018-06-19T15:24:19.886Z,25.30
2018-06-19T15:29:14.530Z,25.00
2018-06-19T15:34:09.430Z,24.90
2018-06-19T15:39:05.365Z,24.80
2018-06-19T15:43:59.825Z,24.90
2018-06-19T15:48:54.520Z,25.20
2018-06-19T15:53:49.665Z,25.60
2018-06-19T16:03:38.565Z,25.90
2018-06-19T16:08:33.203Z,26.00
2018-06-19T16:13:27.742Z,26.10
2018-06-19T16:18:22.663Z,26.00
2018-06-19T16:23:17.147Z,26.00
2018-06-19T16:28:11.829Z,26.00
2018-06-19T16:33:06.644Z,26.10
2018-06-19T16:42:56.080Z,26.00
2018-06-19T16:47:51.150Z,26.00
2018-06-19T16:52:46.118Z,25.90
2018-06-19T16:57:41.064Z,25.80
2018-06-19T17:02:36.924Z,25.70
2018-06-19T17:07:31.909Z,25.50
2018-06-19T17:12:27.669Z,25.40
2018-06-19T17:17:23.393Z,25.20
2018-06-19T17:22:18.037Z,25.00
2018-06-19T17:27:12.954Z,24.80
2018-06-19T17:32:07.455Z,24.70
2018-06-19T17:37:02.296Z,24.50
2018-06-19T17:41:57.682Z,24.60
2018-06-19T17:46:52.985Z,24.30
2018-06-19T17:51:48.298Z,24.10
2018-06-19T17:56:44.452Z,24.10
2018-06-19T18:06:36.787Z,23.90
2018-06-19T18:16:26.408Z,23.70
2018-06-19T18:21:20.993Z,23.70
2018-06-19T18:31:10.745Z,23.50
2018-06-19T18:36:05.421Z,23.40
2018-06-19T18:41:00.379Z,23.30
2018-06-19T18:45:55.005Z,23.20
2018-06-19T18:50:49.495Z,23.00
2018-06-19T19:05:32.853Z,22.70
2018-06-19T19:10:32.597Z,22.50
2018-06-19T19:15:32.371Z,22.40
2018-06-19T19:20:37.205Z,22.30
2018-06-19T19:30:56.932Z,22.10
2018-06-19T19:35:52.397Z,22.00
2018-06-19T19:40:46.932Z,21.90
2018-06-19T19:45:42.019Z,21.90
2018-06-19T19:50:36.743Z,21.80
2018-06-19T19:55:31.275Z,21.70
2018-06-19T20:00:27.436Z,21.70
2018-06-19T20:10:17.488Z,21.50
2018-06-19T20:15:12.518Z,21.50
2018-06-19T20:20:09.887Z,21.40
2018-06-19T20:25:05.107Z,21.30
2018-06-19T20:30:00.405Z,21.20
2018-06-19T20:34:55.312Z,21.20
2018-06-19T20:44:45.330Z,21.10
2018-06-19T20:49:40.390Z,21.10
2018-06-19T20:54:35.476Z,21.10
2018-06-19T20:59:30.825Z,21.00
2018-06-19T21:04:25.995Z,21.00
2018-06-19T21:09:20.496Z,20.90
2018-06-19T21:14:15.378Z,20.90
2018-06-19T21:19:09.828Z,20.90
2018-06-19T21:24:04.464Z,20.80
2018-06-19T21:28:59.279Z,20.80
2018-06-19T21:38:48.590Z,20.80
2018-06-19T21:43:43.464Z,20.80
2018-06-19T21:53:33.072Z,20.80
2018-06-19T21:58:27.967Z,20.80
2018-06-19T22:03:23.566Z,20.80
2018-06-19T22:08:19.266Z,20.70
2018-06-19T22:13:14.169Z,20.70
2018-06-19T22:18:09.074Z,20.70
2018-06-19T22:23:04.086Z,20.70
2018-06-19T22:27:58.828Z,20.70
2018-06-19T22:32:54.124Z,20.70
2018-06-19T22:42:43.311Z,20.60
2018-06-19T22:52:32.383Z,20.60
2018-06-19T22:57:27.032Z,20.60
2018-06-19T23:02:21.798Z,20.50
2018-06-19T23:07:16.306Z,20.50
2018-06-19T23:12:10.776Z,20.50
2018-06-19T23:17:05.357Z,20.50
2018-06-19T23:22:00.210Z,20.50
2018-06-19T23:26:54.717Z,20.40
2018-06-19T23:31:49.352Z,20.40
2018-06-19T23:36:43.993Z,20.40
2018-06-19T23:41:39.470Z,20.40
2018-06-19T23:46:33.941Z,20.30
2018-06-19T23:51:28.627Z,20.20
2018-06-19T23:56:23.132Z,20.30
